Westfield, WI

1:41 AM CST on January 31, 2015 (GMT -0600)
Westfield School Transportation | Change Station
CLOSE
Current Station
Personal Weather Station
Location: Westfield, WI
Elevation: 867 ft
Nearby Weather Stations

Elev 867 ft 43.88 °N, 89.49 °W | Updated 1 second ago

Mostly Cloudy
Mostly Cloudy
14.7 °F
Feels Like 15 °F
N
0.0
Wind Variable Wind from West
Gusts 2.0 mph

Today
High -- | Low -- °F
--% Chance of Precip.
Yesterday
High -- | Low -- °F
Precip. -- in
7:16 AM 5:07 PM
Waxing Gibbous, 88% visible
Pressure 30.27 in
Visibility 10.0 miles
Clouds Mostly Cloudy 9000 ft
Windchill 15 °F
Dew Point 2 °F
Humidity 57%
Rainfall 0.00 in
Snow Depth Not available.
UV 0 out of 12
Pollen .10 out of 12
Air Quality Not available.
Flu Activity Not available.
METAR KY50 310656Z AUTO 00000KT 10SM BKN090 M12/M14 A3023 RMK AO2 TSNO T11161138 BKN V SCT SLP250

More Conditions Fewer Conditions

Pressure 30.27 in
Visibility 10.0 miles
Clouds Mostly Cloudy 9000 ft
Windchill 15 °F
Dew Point 2 °F
Humidity 57%
Rainfall 0.00 in
Snow Depth Not available.
UV 0 out of 12
Pollen .10 out of 12
Air Quality Not available.
Flu Activity Not available.
METAR KY50 310656Z AUTO 00000KT 10SM BKN090 M12/M14 A3023 RMK AO2 TSNO T11161138 BKN V SCT SLP250

More Conditions Fewer Conditions

10-Day Weather Forecast

Almanac

Astronomy

Jan. 31, 2015 Rise Set
Actual Time
Civil Twilight
Nautical Twilight
Astronomical Twilight
Moon
Length of Visible Light
Length of Day
Tomorrow will be .
, % of the Moon is Illuminated

Today's Extremes

State Highs State Lows

Community

WunderPhotos

Upload Photos

1,792,014 photos uploaded!

WunderBlogs® & News

Nearby

Air Quality

  Air Quality AQ Index Pollutant
Not available.

Snow Depth

Station Depth Elevation

Earthquake Activity

City Distance Mag. Time & Date
Minimum magnitude displayed is 2.5.

Coastal Water Temperatures

Place Temperature

Nearby Weather Stations